Time;durP1;ratioP1;P1;durP2;ratioP2;P2;SDS_P1;SDS_P2;PMS_P1;PMS_P2;Temp;Humidity;BMP_temperature;BMP_pressure;BME280_temperature;BME280_humidity;BME280_pressure;Samples;Min_cycle;Max_cycle;Signal;HPM_P1;HPM_P2
2021/07/13 00:01:35;;;;;;;3.63;1.92;;;18.00;99.90;;;;;;6135393;23;20125;-92
2021/07/13 00:04:23;;;;;;;6.40;1.88;;;17.90;99.90;;;;;;6160157;23;20026;-88
2021/07/13 00:07:11;;;;;;;2.38;1.80;;;17.80;99.90;;;;;;6157046;23;20224;-92
2021/07/13 00:10:12;;;;;;;3.70;1.80;;;17.70;99.90;;;;;;6158420;23;20029;-91
2021/07/13 00:13:01;;;;;;;4.30;1.80;;;17.70;99.90;;;;;;6158388;23;20109;-89
2021/07/13 00:15:50;;;;;;;3.80;1.85;;;17.70;99.90;;;;;;6160419;23;20060;-90
2021/07/13 00:18:38;;;;;;;5.15;2.15;;;17.70;99.90;;;;;;6138105;23;20044;-90
2021/07/13 00:21:25;;;;;;;5.50;2.45;;;17.70;99.90;;;;;;6137797;23;20153;-90
2021/07/13 00:24:13;;;;;;;4.57;3.00;;;17.60;99.90;;;;;;6138558;23;20411;-88
2021/07/13 00:27:05;;;;;;;45.53;6.25;;;17.40;99.90;;;;;;6159387;23;20101;-91
2021/07/13 00:48:38;;;;;;;14.30;6.03;;;16.60;99.90;;;;;;6166047;23;20025;-92
2021/07/13 00:51:27;;;;;;;9.40;5.45;;;16.60;99.90;;;;;;6116681;23;20033;-92
2021/07/13 00:54:16;;;;;;;11.30;5.50;;;16.60;99.90;;;;;;6155786;23;20025;-92
2021/07/13 00:57:24;;;;;;;9.52;5.20;;;16.60;99.90;;;;;;6157012;23;20037;-87
2021/07/13 01:00:29;;;;;;;8.85;5.22;;;16.60;99.90;;;;;;6159079;23;20021;-90
2021/07/13 01:03:22;;;;;;;7.90;5.50;;;16.60;99.90;;;;;;6137322;23;20365;-92
2021/07/13 01:06:13;;;;;;;6.40;5.15;;;16.60;99.90;;;;;;6161700;23;20025;-92
2021/07/13 01:09:05;;;;;;;8.68;5.20;;;16.60;99.90;;;;;;6157935;23;20080;-91
2021/07/13 01:11:57;;;;;;;;;;;16.60;99.90;;;;;;6155761;23;20108;-88
2021/07/13 01:14:55;;;;;;;9.32;4.20;;;16.60;99.90;;;;;;6144262;23;19928;-88
2021/07/13 01:18:22;;;;;;;6.75;4.47;;;16.60;99.90;;;;;;6154904;23;20022;-88
2021/07/13 01:21:44;;;;;;;7.32;5.10;;;16.60;99.90;;;;;;6110222;23;20061;-87
2021/07/13 01:25:05;;;;;;;10.63;5.18;;;16.60;99.90;;;;;;6134499;23;20028;-87
2021/07/13 01:27:58;;;;;;;12.88;5.20;;;16.60;99.90;;;;;;6159196;23;20105;-90
2021/07/13 01:30:50;;;;;;;10.68;4.65;;;16.60;99.90;;;;;;6161601;23;20381;-91
2021/07/13 01:33:48;;;;;;;7.32;4.63;;;16.60;99.90;;;;;;6138789;23;20333;-91
2021/07/13 01:37:22;;;;;;;9.48;5.20;;;16.60;99.90;;;;;;6113104;23;20029;-92
2021/07/13 02:21:53;;;;;;;19.67;7.40;;;16.40;99.90;;;;;;5983214;23;20111;-92
2021/07/13 02:25:20;;;;;;;;;;;;;;;;;;;;;
2021/07/13 02:28:43;;;;;;;13.88;7.60;;;16.30;99.90;;;;;;5828802;24;20096;-92
2021/07/13 03:25:39;;;;;;;7.57;5.03;;;15.90;99.90;;;;;;5954654;24;20024;-93
2021/07/13 03:29:06;;;;;;;13.15;5.93;;;15.90;99.90;;;;;;5937012;24;20039;-93
2021/07/13 03:32:18;;;;;;;;;;;;;;;;;;;;;
2021/07/13 03:40:35;;;;;;;;;;;;;;;;;;;;;
2021/07/13 03:47:35;;;;;;;;;;;;;;;;;;;;;
2021/07/13 04:07:13;;;;;;;;;;;;;;;;;;;;;
2021/07/13 04:10:21;;;;;;;11.50;4.40;;;15.80;99.90;;;;;;4964531;28;19933;-91
2021/07/13 04:17:01;;;;;;;7.13;3.83;;;15.80;99.90;;;;;;4969176;28;20047;-89
2021/07/13 04:20:19;;;;;;;10.50;4.68;;;15.80;99.90;;;;;;4896573;29;20063;-92
2021/07/13 04:23:21;;;;;;;7.55;4.65;;;15.90;99.90;;;;;;4894112;29;20104;-91
2021/07/13 04:26:08;;;;;;;6.75;4.57;;;15.90;99.90;;;;;;4877070;29;20196;-92
2021/07/13 04:29:39;;;;;;;8.00;4.93;;;16.00;99.90;;;;;;4882586;29;20148;-90
2021/07/13 04:41:46;;;;;;;11.98;5.68;;;16.20;99.90;;;;;;5000182;28;20033;-90
2021/07/13 04:49:32;;;;;;;;;;;;;;;;;;;;;
2021/07/13 04:52:53;;;;;;;10.52;5.93;;;16.00;99.90;;;;;;5043733;28;20044;-88
2021/07/13 04:55:41;;;;;;;9.82;5.13;;;16.10;99.90;;;;;;5085461;28;20052;-85
2021/07/13 04:58:28;;;;;;;8.13;5.30;;;16.10;99.90;;;;;;5083585;28;20045;-84
2021/07/13 05:01:15;;;;;;;9.50;6.18;;;16.00;99.90;;;;;;5086840;28;20364;-84
2021/07/13 05:04:05;;;;;;;6.88;5.25;;;16.10;99.90;;;;;;5062579;28;20051;-83
2021/07/13 05:06:52;;;;;;;11.23;5.97;;;16.10;99.90;;;;;;5066715;28;20396;-84
2021/07/13 05:09:41;;;;;;;9.45;5.20;;;16.30;99.90;;;;;;5073476;28;20066;-85
2021/07/13 05:12:28;;;;;;;8.65;4.55;;;16.30;99.90;;;;;;5065987;28;20136;-86
2021/07/13 05:15:18;;;;;;;8.90;5.22;;;16.30;99.90;;;;;;5073952;28;20137;-86
2021/07/13 05:18:13;;;;;;;6.57;4.32;;;16.50;99.90;;;;;;5072742;28;20036;-86
2021/07/13 05:21:05;;;;;;;6.22;4.38;;;16.60;99.90;;;;;;5058575;28;20172;-86
2021/07/13 05:23:55;;;;;;;9.27;4.88;;;16.50;99.90;;;;;;5072712;28;20207;-85
2021/07/13 05:26:45;;;;;;;6.60;4.35;;;16.60;99.90;;;;;;5059262;28;20127;-86
2021/07/13 05:29:32;;;;;;;7.60;5.68;;;16.70;99.90;;;;;;5053996;28;20145;-83
2021/07/13 05:32:22;;;;;;;11.35;5.80;;;16.70;99.90;;;;;;5060035;28;20059;-85
2021/07/13 05:35:53;;;;;;;4.78;3.40;;;16.90;99.90;;;;;;5066069;28;20055;-84
2021/07/13 05:38:40;;;;;;;5.28;2.90;;;17.00;99.90;;;;;;5068632;28;20040;-83
2021/07/13 05:41:28;;;;;;;6.95;3.92;;;17.10;99.90;;;;;;5069298;28;20560;-91
2021/07/13 05:44:15;;;;;;;4.85;3.78;;;17.10;99.90;;;;;;5068353;28;20754;-88
2021/07/13 05:47:05;;;;;;;5.65;4.22;;;17.10;99.90;;;;;;5060167;28;20052;-91
2021/07/13 05:50:00;;;;;;;7.53;4.18;;;17.00;99.90;;;;;;5037488;28;20040;-89
2021/07/13 05:52:55;;;;;;;6.35;5.15;;;16.90;99.90;;;;;;5059053;28;20053;-88
2021/07/13 05:55:51;;;;;;;6.85;4.65;;;16.80;99.90;;;;;;5062224;28;20468;-91
2021/07/13 05:58:40;;;;;;;10.77;6.18;;;16.70;99.90;;;;;;5068229;28;20054;-91
2021/07/13 06:01:27;;;;;;;9.98;6.93;;;16.60;99.90;;;;;;5062166;28;20068;-93
2021/07/13 06:04:14;;;;;;;11.90;7.20;;;16.60;99.90;;;;;;5061012;28;20048;-94
2021/07/13 06:07:02;;;;;;;12.25;7.53;;;16.60;99.90;;;;;;5075331;28;20088;-92
2021/07/13 06:09:51;;;;;;;17.67;8.52;;;16.50;99.90;;;;;;5054341;28;20206;-93
2021/07/13 06:12:44;;;;;;;15.77;8.65;;;16.50;99.90;;;;;;5058044;28;20045;-91
2021/07/13 06:15:32;;;;;;;14.73;10.20;;;16.50;99.90;;;;;;5064330;28;20450;-89
2021/07/13 06:18:22;;;;;;;17.83;9.85;;;16.60;99.90;;;;;;5059951;28;20049;-90
2021/07/13 06:21:10;;;;;;;17.15;11.23;;;16.70;99.90;;;;;;5055961;28;20099;-91
2021/07/13 06:23:58;;;;;;;16.15;10.18;;;16.60;99.90;;;;;;5044201;28;20135;-89
2021/07/13 06:26:45;;;;;;;18.70;11.95;;;16.60;99.90;;;;;;5019844;28;20063;-91
2021/07/13 06:29:32;;;;;;;20.30;13.07;;;16.60;99.90;;;;;;5053804;28;20055;-91
2021/07/13 06:32:19;;;;;;;19.75;13.68;;;16.70;99.90;;;;;;5041123;28;20128;-90
2021/07/13 06:35:09;;;;;;;18.48;13.50;;;16.90;99.90;;;;;;5048056;28;20040;-90
2021/07/13 06:37:58;;;;;;;18.27;12.98;;;16.90;99.90;;;;;;5039906;28;20038;-88
2021/07/13 06:40:46;;;;;;;15.63;11.15;;;16.90;99.90;;;;;;5033383;28;20555;-90
2021/07/13 06:43:33;;;;;;;15.98;9.63;;;16.70;99.90;;;;;;5040978;28;20076;-89
2021/07/13 06:46:21;;;;;;;17.23;11.00;;;16.60;99.90;;;;;;5031562;28;20096;-88
2021/07/13 06:49:08;;;;;;;11.13;8.70;;;16.60;99.90;;;;;;5015431;28;20040;-91
2021/07/13 06:51:58;;;;;;;17.80;9.57;;;16.60;99.90;;;;;;5050640;28;20049;-92
2021/07/13 06:54:48;;;;;;;15.75;9.15;;;16.50;99.90;;;;;;5038051;28;20045;-88
2021/07/13 06:57:36;;;;;;;14.10;9.48;;;16.50;99.90;;;;;;5054793;28;20053;-90
2021/07/13 07:00:23;;;;;;;12.13;8.48;;;16.50;99.90;;;;;;5027063;28;20060;-91
2021/07/13 07:03:10;;;;;;;14.68;8.80;;;16.50;99.90;;;;;;5045398;28;20536;-91
2021/07/13 07:05:58;;;;;;;15.77;8.85;;;16.50;99.90;;;;;;5040391;28;20052;-90
2021/07/13 07:08:48;;;;;;;12.93;9.10;;;16.50;99.90;;;;;;5029181;28;20139;-89
2021/07/13 07:11:38;;;;;;;13.20;9.45;;;16.50;99.90;;;;;;5039653;28;20109;-90
2021/07/13 07:14:29;;;;;;;17.98;10.35;;;16.50;99.90;;;;;;5051143;28;20335;-92
2021/07/13 07:17:19;;;;;;;12.30;8.32;;;16.50;99.90;;;;;;5038174;28;20056;-89
2021/07/13 07:20:09;;;;;;;15.98;9.93;;;16.60;99.90;;;;;;5036520;28;20159;-92
2021/07/13 07:22:58;;;;;;;14.50;9.05;;;16.60;99.90;;;;;;5039671;28;20056;-91
2021/07/13 07:25:46;;;;;;;14.60;8.52;;;16.70;99.90;;;;;;5052978;28;20453;-91
2021/07/13 07:28:33;;;;;;;11.85;8.98;;;16.60;99.90;;;;;;5053302;28;20445;-91
2021/07/13 07:31:52;;;;;;;11.48;7.57;;;16.70;99.90;;;;;;5051603;28;20053;-92
2021/07/13 07:34:48;;;;;;;9.98;7.10;;;16.70;99.90;;;;;;5056543;28;20041;-89
2021/07/13 07:37:40;;;;;;;11.68;7.50;;;16.80;99.90;;;;;;5051407;28;20486;-88
2021/07/13 07:40:34;;;;;;;10.48;7.93;;;16.70;99.90;;;;;;5042487;28;20173;-90
2021/07/13 07:43:21;;;;;;;11.05;7.75;;;16.60;99.90;;;;;;5050960;28;20627;-90
2021/07/13 07:46:12;;;;;;;10.90;7.88;;;16.60;99.90;;;;;;5036440;28;20110;-89
2021/07/13 07:48:59;;;;;;;13.75;8.75;;;16.60;99.90;;;;;;5049265;28;20045;-92
2021/07/13 07:51:46;;;;;;;16.02;8.18;;;16.60;99.90;;;;;;5054339;28;20180;-88
2021/07/13 07:54:34;;;;;;;11.52;7.38;;;16.50;99.90;;;;;;5040628;28;20037;-89
2021/07/13 07:57:22;;;;;;;12.75;8.05;;;16.50;99.90;;;;;;5043213;28;20501;-88
2021/07/13 08:00:14;;;;;;;13.77;8.30;;;16.50;99.90;;;;;;5036899;28;20037;-92
2021/07/13 08:03:12;;;;;;;17.55;8.20;;;16.60;99.90;;;;;;5061371;28;20474;-91
2021/07/13 08:15:26;;;;;;;8.25;5.70;;;16.70;99.90;;;;;;5052451;28;20044;-92
2021/07/13 08:18:43;;;;;;;;;;;;;;;;;;;;;
2021/07/13 08:22:15;;;;;;;;;;;;;;;;;;;;;
2021/07/13 08:25:20;;;;;;;3.58;3.28;;;17.10;99.90;;;;;;5046915;28;20048;-93
2021/07/13 08:28:25;;;;;;;3.00;2.40;;;17.10;99.90;;;;;;5051123;28;20048;-89
2021/07/13 08:32:09;;;;;;;2.60;1.90;;;16.90;99.90;;;;;;5040229;28;20041;-93
2021/07/13 08:34:57;;;;;;;;;;;16.70;99.90;;;;;;5036494;28;20060;-89
2021/07/13 08:37:44;;;;;;;3.25;2.67;;;16.60;99.90;;;;;;5047740;28;19921;-88
2021/07/13 08:40:32;;;;;;;6.60;2.55;;;16.50;99.90;;;;;;5040232;28;20052;-88
2021/07/13 08:43:25;;;;;;;3.80;2.75;;;16.50;99.90;;;;;;5038548;28;20064;-87
2021/07/13 08:46:16;;;;;;;4.50;2.28;;;16.50;99.90;;;;;;5044898;28;20102;-88
2021/07/13 08:49:04;;;;;;;4.68;1.75;;;16.50;99.90;;;;;;5055773;28;20148;-89
2021/07/13 08:51:51;;;;;;;2.03;1.92;;;16.40;99.90;;;;;;5055885;28;20037;-90
2021/07/13 08:54:39;;;;;;;1.58;1.42;;;16.30;99.90;;;;;;5066669;28;20129;-92
2021/07/13 08:57:29;;;;;;;1.95;1.55;;;16.20;99.90;;;;;;5045220;28;20181;-90
2021/07/13 09:00:19;;;;;;;2.17;1.60;;;16.10;99.90;;;;;;5059976;28;20068;-92
2021/07/13 09:03:19;;;;;;;5.30;1.90;;;16.10;99.90;;;;;;5052244;28;20045;-90
2021/07/13 09:06:07;;;;;;;5.15;2.00;;;16.10;99.90;;;;;;5037111;28;20041;-90
2021/07/13 09:09:01;;;;;;;13.55;1.60;;;16.00;99.90;;;;;;5045259;28;20442;-92
2021/07/13 09:12:12;;;;;;;25.67;1.88;;;15.90;99.90;;;;;;5059112;28;20047;-87
2021/07/13 09:15:17;;;;;;;2.03;1.23;;;15.80;99.90;;;;;;5044379;28;20132;-92
2021/07/13 09:18:28;;;;;;;3.83;0.70;;;15.80;99.90;;;;;;5045554;28;20037;-92
2021/07/13 09:21:32;;;;;;;2.75;1.00;;;15.70;99.90;;;;;;5042568;28;20451;-90
2021/07/13 09:24:30;;;;;;;1.52;0.40;;;15.70;99.90;;;;;;5065849;28;20059;-93
2021/07/13 09:27:22;;;;;;;0.50;0.38;;;15.40;99.90;;;;;;5054415;28;20049;-89
2021/07/13 09:30:40;;;;;;;1.80;0.30;;;15.20;99.90;;;;;;5047010;28;20056;-90
2021/07/13 09:33:35;;;;;;;0.35;0.35;;;15.00;99.90;;;;;;5059455;28;20044;-89
2021/07/13 09:37:25;;;;;;;;;;;;;;;;;;;;;
2021/07/13 09:40:42;;;;;;;1.65;0.57;;;15.00;99.90;;;;;;5058524;28;20045;-93
2021/07/13 09:44:24;;;;;;;1.05;0.40;;;14.90;99.90;;;;;;5057848;28;20044;-90
2021/07/13 09:47:30;;;;;;;2.08;0.40;;;14.80;99.90;;;;;;5031398;28;20056;-83
2021/07/13 09:50:31;;;;;;;3.10;0.40;;;14.60;99.90;;;;;;5046133;28;20116;-88
2021/07/13 09:53:22;;;;;;;0.88;0.50;;;14.50;99.90;;;;;;5055479;28;20112;-90
2021/07/13 09:56:44;;;;;;;1.75;0.52;;;14.40;99.90;;;;;;5041999;28;20084;-92
2021/07/13 09:59:56;;;;;;;2.15;0.40;;;14.30;99.90;;;;;;5051870;28;20186;-90
2021/07/13 10:03:19;;;;;;;0.95;0.40;;;14.20;99.90;;;;;;5056748;28;20052;-90
2021/07/13 10:06:06;;;;;;;1.02;0.50;;;14.20;99.90;;;;;;5045780;28;20037;-91
2021/07/13 10:09:11;;;;;;;;;;;;;;;;;;;;;
2021/07/13 10:13:28;;;;;;;;;;;;;;;;;;;;;
2021/07/13 10:16:36;;;;;;;2.03;0.60;;;14.50;99.90;;;;;;4967721;28;20531;-90
2021/07/13 10:19:30;;;;;;;0.85;0.50;;;14.60;99.90;;;;;;4979642;28;20055;-91
2021/07/13 10:22:29;;;;;;;1.88;0.50;;;14.70;99.90;;;;;;4967297;28;20074;-92
2021/07/13 10:25:18;;;;;;;3.65;0.68;;;14.70;99.90;;;;;;4969886;28;20087;-90
2021/07/13 10:28:27;;;;;;;0.50;0.50;;;14.70;99.90;;;;;;4971557;28;20046;-90
2021/07/13 10:31:50;;;;;;;1.40;0.30;;;14.60;99.90;;;;;;4969876;28;20074;-89
2021/07/13 10:34:55;;;;;;;0.50;0.38;;;14.50;99.90;;;;;;4969620;28;20046;-91
2021/07/13 10:38:25;;;;;;;0.82;0.32;;;14.50;99.90;;;;;;5055514;28;20110;-90
2021/07/13 10:41:30;;;;;;;0.30;0.30;;;14.70;99.90;;;;;;5047112;28;20045;-90
2021/07/13 10:44:49;;;;;;;0.85;0.40;;;14.70;99.90;;;;;;4977631;28;20055;-90
2021/07/13 10:56:45;;;;;;;0.73;0.30;;;14.80;99.90;;;;;;4974738;28;20083;-90
2021/07/13 11:00:03;;;;;;;0.50;0.40;;;15.00;99.90;;;;;;4993472;28;20129;-92
2021/07/13 11:24:24;;;;;;;1.10;0.47;;;15.30;99.90;;;;;;4968616;28;20085;-93
2021/07/13 11:28:06;;;;;;;0.30;0.30;;;15.30;99.90;;;;;;4950267;28;20047;-90
2021/07/13 12:04:44;;;;;;;0.75;0.50;;;15.70;99.90;;;;;;5042756;28;20041;-91
2021/07/13 12:07:35;;;;;;;0.47;0.45;;;15.70;99.90;;;;;;5039954;28;20053;-88
2021/07/13 12:10:24;;;;;;;1.77;0.50;;;15.80;99.90;;;;;;5032913;28;20139;-89
2021/07/13 12:13:11;;;;;;;3.70;0.70;;;15.80;99.90;;;;;;5051626;28;20056;-87
2021/07/13 12:16:16;;;;;;;1.27;0.70;;;15.90;99.90;;;;;;5048175;28;20048;-89
2021/07/13 12:19:08;;;;;;;0.50;0.50;;;15.90;99.90;;;;;;5036694;28;20110;-89
2021/07/13 12:22:13;;;;;;;0.85;0.50;;;15.90;99.90;;;;;;5040974;28;20040;-87
2021/07/13 12:25:04;;;;;;;0.57;0.57;;;15.90;99.90;;;;;;5055612;28;20041;-85
2021/07/13 12:27:51;;;;;;;0.60;0.40;;;16.00;99.90;;;;;;5039885;28;20041;-85
2021/07/13 12:30:39;;;;;;;0.65;0.60;;;16.20;99.90;;;;;;5051075;28;20040;-86
2021/07/13 12:33:31;;;;;;;0.60;0.60;;;16.30;99.90;;;;;;5053130;28;20071;-87
2021/07/13 12:36:27;;;;;;;0.73;0.52;;;16.50;99.90;;;;;;5058434;28;20044;-89
2021/07/13 12:39:17;;;;;;;1.05;0.63;;;16.50;99.90;;;;;;5042690;28;20044;-87
2021/07/13 12:42:13;;;;;;;1.83;0.60;;;16.40;99.90;;;;;;5054321;28;20094;-87
2021/07/13 12:45:01;;;;;;;0.98;0.68;;;16.40;99.90;;;;;;5040484;28;20048;-85
2021/07/13 12:47:50;;;;;;;0.85;0.70;;;16.50;99.90;;;;;;5054776;28;20477;-85
2021/07/13 12:50:47;;;;;;;0.95;0.50;;;16.60;99.90;;;;;;5040185;28;20045;-88
2021/07/13 12:53:34;;;;;;;0.88;0.70;;;16.80;99.90;;;;;;5054438;28;20124;-84
2021/07/13 12:56:28;;;;;;;1.60;0.80;;;16.80;99.90;;;;;;5040595;28;20124;-85
2021/07/13 12:59:18;;;;;;;5.07;0.90;;;16.70;99.90;;;;;;5033651;28;20125;-85
2021/07/13 13:02:15;;;;;;;2.90;0.60;;;16.40;99.90;;;;;;5040993;28;20076;-90
2021/07/13 13:05:05;;;;;;;0.65;0.65;;;16.20;99.90;;;;;;5052149;28;21002;-88
2021/07/13 13:08:21;;;;;;;0.60;0.60;;;16.20;99.90;;;;;;5052444;28;20045;-86
2021/07/13 13:11:18;;;;;;;0.88;0.70;;;16.10;99.90;;;;;;5043015;28;20480;-87
2021/07/13 13:14:15;;;;;;;1.80;1.10;;;16.20;99.90;;;;;;5051439;28;20041;-87
2021/07/13 13:17:05;;;;;;;0.60;0.60;;;16.20;99.90;;;;;;5051867;28;20051;-89
2021/07/13 13:19:52;;;;;;;1.65;0.68;;;16.10;99.90;;;;;;5065287;28;20132;-88
2021/07/13 13:22:47;;;;;;;0.82;0.80;;;16.10;99.90;;;;;;5059570;28;20454;-87
2021/07/13 13:25:35;;;;;;;4.07;0.70;;;16.00;99.90;;;;;;5066944;28;20059;-88
2021/07/13 13:28:22;;;;;;;0.77;0.60;;;16.20;99.90;;;;;;5057112;28;20057;-86
2021/07/13 13:31:10;;;;;;;0.90;0.80;;;16.30;99.90;;;;;;5064406;28;20056;-87
2021/07/13 13:33:58;;;;;;;1.00;0.90;;;16.60;99.90;;;;;;5037909;28;20076;-86
2021/07/13 13:36:47;;;;;;;1.10;0.88;;;16.80;99.90;;;;;;5062517;28;20040;-86
2021/07/13 13:40:05;;;;;;;1.58;0.98;;;16.70;99.90;;;;;;5085857;28;20051;-89
2021/07/13 13:42:53;;;;;;;2.95;0.80;;;16.50;99.90;;;;;;5058188;28;20333;-88
2021/07/13 13:45:40;;;;;;;0.57;0.55;;;16.60;99.90;;;;;;5065757;28;20036;-89
2021/07/13 13:48:31;;;;;;;1.15;0.85;;;16.50;99.90;;;;;;5076044;28;20024;-89
2021/07/13 13:51:42;;;;;;;0.68;0.68;;;16.60;99.90;;;;;;5062710;28;20055;-86
2021/07/13 13:54:32;;;;;;;0.70;0.70;;;16.60;99.90;;;;;;5079276;28;20048;-89
2021/07/13 13:57:41;;;;;;;1.20;0.93;;;16.40;99.90;;;;;;5070957;28;20044;-88
2021/07/13 14:00:29;;;;;;;1.63;0.80;;;16.30;99.90;;;;;;5063977;28;20331;-89
2021/07/13 14:03:19;;;;;;;1.20;0.80;;;16.20;99.90;;;;;;5070602;28;20054;-91
2021/07/13 14:06:11;;;;;;;0.77;0.70;;;16.10;99.90;;;;;;5059919;28;20059;-88
2021/07/13 14:09:01;;;;;;;0.88;0.85;;;16.10;99.90;;;;;;5067116;28;20097;-90
2021/07/13 14:11:48;;;;;;;0.70;0.70;;;15.90;99.90;;;;;;5059710;28;20526;-88
2021/07/13 14:14:40;;;;;;;1.00;0.90;;;15.90;99.90;;;;;;5061524;28;20045;-88
2021/07/13 14:17:43;;;;;;;1.33;0.80;;;15.70;99.90;;;;;;5066691;28;20048;-88
2021/07/13 14:20:30;;;;;;;1.13;0.77;;;15.70;99.90;;;;;;5066365;28;20048;-88
2021/07/13 14:23:20;;;;;;;0.88;0.88;;;15.70;99.90;;;;;;5057561;28;20123;-88
2021/07/13 14:26:07;;;;;;;0.52;0.52;;;15.60;99.90;;;;;;5064555;28;20051;-89
2021/07/13 14:28:55;;;;;;;1.05;0.75;;;15.60;99.90;;;;;;5069012;28;20052;-89
2021/07/13 14:31:42;;;;;;;2.10;0.85;;;15.70;99.90;;;;;;5057733;28;20444;-88
2021/07/13 14:34:31;;;;;;;2.92;0.95;;;15.80;99.90;;;;;;5073488;28;20048;-88
2021/07/13 14:37:18;;;;;;;2.35;0.82;;;15.90;99.90;;;;;;5072192;28;20040;-88
2021/07/13 14:40:09;;;;;;;1.85;0.70;;;16.20;99.90;;;;;;5059271;28;20052;-89
2021/07/13 14:42:57;;;;;;;0.90;0.70;;;16.40;99.90;;;;;;5083666;28;20036;-88
2021/07/13 14:46:04;;;;;;;0.80;0.80;;;16.50;99.90;;;;;;5075739;28;20074;-86
2021/07/13 14:48:51;;;;;;;1.77;0.75;;;16.50;99.90;;;;;;5060903;28;20053;-87
2021/07/13 14:51:38;;;;;;;0.70;0.70;;;16.40;99.90;;;;;;5066482;28;20048;-86
2021/07/13 14:54:26;;;;;;;1.45;0.73;;;16.40;99.90;;;;;;5073722;28;20098;-85
2021/07/13 14:57:13;;;;;;;0.90;0.70;;;16.30;99.90;;;;;;5071817;28;20071;-85
2021/07/13 15:00:00;;;;;;;0.73;0.70;;;16.30;99.90;;;;;;5057511;28;20080;-88
2021/07/13 15:02:48;;;;;;;0.68;0.68;;;16.20;99.90;;;;;;5068616;28;20037;-89
2021/07/13 15:05:37;;;;;;;1.30;0.70;;;16.10;99.90;;;;;;5044756;28;20040;-88
2021/07/13 15:08:26;;;;;;;2.25;0.70;;;16.20;99.90;;;;;;5070954;28;20607;-87
2021/07/13 15:11:13;;;;;;;4.18;1.17;;;16.30;99.90;;;;;;5073276;28;20048;-86
2021/07/13 15:14:01;;;;;;;0.80;0.80;;;16.60;99.90;;;;;;5071902;28;20581;-88
2021/07/13 15:16:49;;;;;;;1.90;1.23;;;16.90;99.90;;;;;;5068772;28;20128;-85
2021/07/13 15:19:37;;;;;;;0.75;0.70;;;17.10;99.90;;;;;;5070647;28;20051;-87
2021/07/13 15:22:27;;;;;;;1.10;0.77;;;17.20;99.90;;;;;;5046932;28;20051;-88
2021/07/13 15:25:14;;;;;;;1.02;0.90;;;16.80;99.90;;;;;;5056319;28;20292;-90
2021/07/13 15:28:02;;;;;;;0.77;0.77;;;16.60;99.90;;;;;;5068846;28;20044;-86
2021/07/13 15:30:49;;;;;;;1.92;0.73;;;16.50;99.90;;;;;;5061155;28;20117;-88
2021/07/13 15:33:37;;;;;;;2.47;1.00;;;16.70;99.90;;;;;;5071776;28;20445;-86
2021/07/13 15:36:25;;;;;;;1.65;0.70;;;16.60;99.90;;;;;;5071729;28;20037;-86
2021/07/13 15:39:12;;;;;;;0.88;0.80;;;16.70;99.90;;;;;;5057905;28;20468;-85
2021/07/13 15:42:04;;;;;;;0.98;0.77;;;16.70;99.90;;;;;;5068225;28;20467;-88
2021/07/13 15:44:52;;;;;;;1.20;1.00;;;16.80;99.90;;;;;;5065326;28;20041;-87
2021/07/13 15:47:45;;;;;;;3.15;0.80;;;17.10;99.90;;;;;;5057384;28;20041;-90
2021/07/13 15:50:33;;;;;;;0.80;0.80;;;17.00;99.90;;;;;;5071658;28;20051;-88
2021/07/13 15:53:22;;;;;;;0.95;0.70;;;16.80;99.90;;;;;;5062625;28;20145;-89
2021/07/13 15:56:09;;;;;;;1.00;0.80;;;16.90;99.90;;;;;;5054497;28;20747;-90
2021/07/13 15:59:01;;;;;;;1.05;0.82;;;16.90;99.90;;;;;;5079319;28;20335;-87
2021/07/13 16:01:48;;;;;;;0.88;0.70;;;16.90;99.90;;;;;;5065532;28;20040;-87
2021/07/13 16:04:43;;;;;;;1.02;0.77;;;17.10;99.90;;;;;;5071653;28;20456;-90
2021/07/13 16:07:30;;;;;;;1.73;0.80;;;17.30;99.90;;;;;;5058251;28;20076;-88
2021/07/13 16:10:20;;;;;;;0.70;0.70;;;17.30;99.90;;;;;;5058587;28;20465;-87
2021/07/13 16:13:13;;;;;;;3.33;0.82;;;17.30;99.90;;;;;;5061926;28;20352;-90
2021/07/13 16:16:04;;;;;;;1.13;0.88;;;17.40;99.90;;;;;;5062766;28;20519;-89
2021/07/13 16:18:51;;;;;;;0.68;0.60;;;17.50;99.90;;;;;;5072576;28;20386;-88
2021/07/13 16:21:40;;;;;;;2.05;1.05;;;17.50;99.90;;;;;;5054357;28;20048;-89
2021/07/13 16:24:29;;;;;;;2.20;0.80;;;17.60;99.90;;;;;;5056437;28;20036;-89
2021/07/13 16:27:17;;;;;;;2.30;2.10;;;17.40;99.90;;;;;;5030641;28;20493;-90
2021/07/13 16:30:07;;;;;;;4.55;2.75;;;17.40;99.90;;;;;;5050288;28;20461;-91
2021/07/13 16:32:59;;;;;;;1.15;0.75;;;17.50;99.90;;;;;;5037209;28;20038;-89
2021/07/13 16:35:47;;;;;;;0.98;0.70;;;17.60;99.90;;;;;;5046230;28;20065;-90
2021/07/13 16:38:34;;;;;;;1.02;0.93;;;17.50;99.90;;;;;;5040969;28;20089;-90
2021/07/13 16:41:22;;;;;;;0.80;0.80;;;17.60;99.90;;;;;;5041115;28;20048;-90
2021/07/13 16:44:10;;;;;;;1.17;0.68;;;17.90;99.90;;;;;;5046573;28;20133;-90
2021/07/13 16:46:58;;;;;;;0.68;0.68;;;18.00;99.90;;;;;;5060062;28;20053;-90
2021/07/13 16:49:46;;;;;;;2.45;0.80;;;18.10;99.90;;;;;;5036712;28;20044;-89
2021/07/13 16:52:34;;;;;;;1.15;0.82;;;18.10;99.90;;;;;;5046041;28;20080;-89
2021/07/13 16:55:37;;;;;;;2.80;0.88;;;18.10;99.90;;;;;;5033819;28;20041;-88
2021/07/13 16:58:25;;;;;;;1.17;0.75;;;18.00;99.90;;;;;;5038794;28;20060;-89
2021/07/13 17:01:14;;;;;;;1.27;0.70;;;18.00;99.90;;;;;;5054666;28;20057;-91
2021/07/13 17:04:02;;;;;;;4.15;0.80;;;17.70;99.90;;;;;;5029002;28;20049;-89
2021/07/13 17:06:54;;;;;;;1.38;0.93;;;17.70;99.90;;;;;;5034132;28;20067;-90
2021/07/13 17:09:44;;;;;;;3.47;1.02;;;17.40;99.90;;;;;;5044901;28;20052;-87
2021/07/13 17:12:31;;;;;;;2.47;0.90;;;17.40;99.90;;;;;;5042082;28;20454;-88
2021/07/13 17:15:25;;;;;;;0.90;0.90;;;17.20;99.90;;;;;;5041526;28;20113;-89
2021/07/13 17:18:12;;;;;;;0.70;0.70;;;17.20;99.90;;;;;;5040542;28;20176;-88
2021/07/13 17:21:01;;;;;;;0.80;0.80;;;17.20;99.90;;;;;;5055625;28;20045;-88
2021/07/13 17:23:52;;;;;;;1.20;0.90;;;17.00;99.90;;;;;;5051128;28;20040;-90
2021/07/13 17:26:42;;;;;;;1.20;1.10;;;16.80;99.90;;;;;;5046985;28;20041;-89
2021/07/13 17:29:29;;;;;;;1.60;0.98;;;16.80;99.90;;;;;;5059773;28;20045;-91
2021/07/13 17:32:22;;;;;;;1.08;0.98;;;16.70;99.90;;;;;;5043714;28;20041;-90
2021/07/13 17:35:10;;;;;;;4.50;3.08;;;16.70;99.90;;;;;;5046028;28;20048;-89
2021/07/13 17:38:10;;;;;;;;;;;;;;;;;;;;;
2021/07/13 17:40:59;;;;;;;0.90;0.90;;;16.70;99.90;;;;;;5054036;28;20136;-89
2021/07/13 17:43:49;;;;;;;1.45;1.17;;;16.70;99.90;;;;;;5057181;28;20037;-89
2021/07/13 17:46:39;;;;;;;1.02;0.93;;;16.60;99.90;;;;;;5040613;28;20049;-90
2021/07/13 17:49:29;;;;;;;1.05;1.00;;;16.50;99.90;;;;;;5029229;28;20079;-89
2021/07/13 17:52:17;;;;;;;1.08;0.80;;;16.50;99.90;;;;;;5027843;28;20071;-89
2021/07/13 17:55:09;;;;;;;1.38;0.90;;;16.40;99.90;;;;;;5047019;28;20041;-89
2021/07/13 17:57:56;;;;;;;1.27;0.95;;;16.40;99.90;;;;;;5056453;28;20052;-89
2021/07/13 18:00:44;;;;;;;1.17;1.08;;;16.30;99.90;;;;;;5055883;28;20053;-91
2021/07/13 18:03:36;;;;;;;1.40;0.80;;;16.30;99.90;;;;;;5027568;28;20124;-92
2021/07/13 18:06:30;;;;;;;1.70;0.90;;;16.20;99.90;;;;;;5040173;28;20056;-91
2021/07/13 18:09:28;;;;;;;1.15;1.05;;;16.10;99.90;;;;;;5063777;28;20045;-91
2021/07/13 18:12:49;;;;;;;0.90;0.90;;;16.10;99.90;;;;;;5032674;28;20053;-90
2021/07/13 18:15:40;;;;;;;1.35;0.95;;;16.10;99.90;;;;;;5039145;28;20045;-91
2021/07/13 18:18:34;;;;;;;1.10;1.00;;;16.10;99.90;;;;;;5054897;28;20087;-91
2021/07/13 18:21:44;;;;;;;1.02;1.00;;;16.00;99.90;;;;;;5021859;28;20041;-90
2021/07/13 18:24:32;;;;;;;3.35;1.15;;;16.00;99.90;;;;;;5040635;28;20056;-89
2021/07/13 18:27:27;;;;;;;0.95;0.90;;;15.90;99.90;;;;;;5054754;28;20045;-90
2021/07/13 18:30:25;;;;;;;3.55;1.20;;;15.90;99.90;;;;;;5047195;28;20064;-91
2021/07/13 18:33:24;;;;;;;1.73;1.00;;;15.90;99.90;;;;;;5053281;28;20060;-90
2021/07/13 18:36:12;;;;;;;1.02;0.98;;;15.90;99.90;;;;;;5054582;28;20041;-92
2021/07/13 18:39:05;;;;;;;1.55;1.02;;;15.90;99.90;;;;;;5060342;28;20045;-91
2021/07/13 18:41:52;;;;;;;4.68;1.40;;;15.90;99.90;;;;;;5056378;28;20401;-90
2021/07/13 18:44:40;;;;;;;1.10;1.00;;;15.80;99.90;;;;;;5048589;28;20041;-89
2021/07/13 18:47:36;;;;;;;1.50;1.40;;;15.70;99.90;;;;;;5056972;28;20414;-91
2021/07/13 18:50:36;;;;;;;1.65;1.40;;;15.60;99.90;;;;;;5049563;28;20056;-92
2021/07/13 18:53:28;;;;;;;;;;;15.60;99.90;;;;;;5068694;28;20053;-91
2021/07/13 18:56:16;;;;;;;2.65;1.50;;;15.50;99.90;;;;;;5039065;28;19932;-89
2021/07/13 18:59:04;;;;;;;2.50;1.98;;;15.50;99.90;;;;;;5044075;28;20053;-89
2021/07/13 19:01:52;;;;;;;1.40;1.30;;;15.50;99.90;;;;;;5053683;28;20044;-91
2021/07/13 19:04:40;;;;;;;1.80;1.63;;;15.40;99.90;;;;;;5066977;28;20102;-92
2021/07/13 19:07:30;;;;;;;2.45;1.30;;;15.40;99.90;;;;;;5026935;28;20052;-91
2021/07/13 19:10:19;;;;;;;1.50;1.40;;;15.40;99.90;;;;;;5060501;28;20049;-91
2021/07/13 19:13:06;;;;;;;1.50;1.40;;;15.40;99.90;;;;;;5049772;28;20045;-91
2021/07/13 19:15:57;;;;;;;1.90;1.65;;;15.30;99.90;;;;;;5052147;28;20042;-90
2021/07/13 19:18:47;;;;;;;;;;;15.30;99.90;;;;;;5035194;28;20060;-90